createdAt,value
2022-09-11T00:01:24.784Z,98183.81
2022-09-11T00:03:28.079Z,98191.44
2022-09-11T00:05:31.254Z,98185.06
2022-09-11T00:07:34.379Z,98188.66
2022-09-11T00:09:37.588Z,98180.63
2022-09-11T00:11:42.323Z,98182.56
2022-09-11T00:13:49.416Z,98173.84
2022-09-11T00:15:53.130Z,98174.94
2022-09-11T00:17:56.964Z,98168.28
2022-09-11T00:20:01.141Z,98165.09
2022-09-11T00:22:04.481Z,98166.78
2022-09-11T00:24:08.545Z,98166.06
2022-09-11T00:26:11.941Z,98167.34
2022-09-11T00:28:16.632Z,98162.59
2022-09-11T00:30:21.158Z,98159.97
2022-09-11T00:32:24.418Z,98164.28
2022-09-11T00:34:27.371Z,98166.78
2022-09-11T00:36:32.377Z,98166.63
2022-09-11T00:38:37.332Z,98169.81
2022-09-11T00:40:46.228Z,98160.53
2022-09-11T00:42:53.473Z,98158.72
2022-09-11T00:45:02.615Z,98173.44
2022-09-11T00:47:10.104Z,98169.78
2022-09-11T00:49:19.662Z,98165.94
2022-09-11T00:51:25.924Z,98168.28
2022-09-11T00:53:31.277Z,98168.28
2022-09-11T00:55:35.842Z,98167.16
2022-09-11T00:57:44.080Z,98161.59
2022-09-11T00:59:48.636Z,98165.91
2022-09-11T01:01:51.752Z,98166.03
2022-09-11T01:03:57.059Z,98166.72
2022-09-11T01:06:00.980Z,98164.66
2022-09-11T01:08:06.440Z,98159.25
2022-09-11T01:10:10.540Z,98164.38
2022-09-11T01:12:18.483Z,98164.25
2022-09-11T01:14:34.518Z,98165.88
2022-09-11T01:16:41.073Z,98167.28
2022-09-11T01:18:49.828Z,98164.50
2022-09-11T01:21:05.908Z,98165.31
2022-09-11T01:23:26.901Z,98161.72
2022-09-11T01:25:36.915Z,98162.69
2022-09-11T01:27:47.673Z,98164.34
2022-09-11T01:29:55.254Z,98156.59
2022-09-11T01:32:15.884Z,98169.22
2022-09-11T01:34:22.906Z,98169.09
2022-09-11T01:36:30.445Z,98159.38
2022-09-11T01:38:35.774Z,98169.75
2022-09-11T01:40:44.452Z,98168.66
2022-09-11T01:42:52.645Z,98170.28
2022-09-11T01:44:57.705Z,98175.56
2022-09-11T01:47:03.160Z,98177.25
2022-09-11T01:49:10.113Z,98176.28
2022-09-11T01:51:16.694Z,98181.56
2022-09-11T01:53:22.007Z,98174.31
2022-09-11T01:55:29.540Z,98182.22
2022-09-11T01:57:36.631Z,98178.63
2022-09-11T01:59:45.870Z,98178.50
2022-09-11T02:01:52.547Z,98177.50
2022-09-11T02:03:57.913Z,98173.06
2022-09-11T02:06:06.599Z,98178.34
2022-09-11T02:08:23.437Z,98175.56
2022-09-11T02:10:31.180Z,98176.41
2022-09-11T02:12:40.846Z,98179.84
2022-09-11T02:14:48.729Z,98178.06
2022-09-11T02:16:53.412Z,98176.09
2022-09-11T02:19:01.028Z,98177.94
2022-09-11T02:21:05.176Z,98178.88
2022-09-11T02:23:08.942Z,98179.72
2022-09-11T02:25:13.707Z,98181.38
2022-09-11T02:27:19.066Z,98179.72
2022-09-11T02:29:22.740Z,98182.47
2022-09-11T02:31:28.092Z,98182.47
2022-09-11T02:33:35.859Z,98175.44
2022-09-11T02:35:45.518Z,98179.72
2022-09-11T02:37:52.845Z,98185.84
2022-09-11T02:40:33.315Z,98181.25
2022-09-11T02:42:47.785Z,98198.00
2022-09-11T02:44:56.318Z,98192.06
2022-09-11T02:47:08.820Z,98178.06
2022-09-11T02:49:20.689Z,98187.63
2022-09-11T02:51:29.358Z,98187.63
2022-09-11T02:53:36.445Z,98189.28
2022-09-11T02:55:50.032Z,98191.78
2022-09-11T02:57:58.840Z,98188.31
2022-09-11T03:00:05.912Z,98187.47
2022-09-11T03:02:14.840Z,98192.59
2022-09-11T03:04:20.315Z,98189.97
2022-09-11T03:06:27.373Z,98187.47
2022-09-11T03:08:31.539Z,98196.22
2022-09-11T03:10:35.536Z,98195.25
2022-09-11T03:12:38.819Z,98188.16
2022-09-11T03:14:41.780Z,98193.59
2022-09-11T03:16:45.857Z,98190.97
2022-09-11T03:18:50.589Z,98189.44
2022-09-11T03:20:53.541Z,98185.84
2022-09-11T03:22:56.623Z,98196.38
2022-09-11T03:24:59.685Z,98193.75
2022-09-11T03:27:06.863Z,98194.69
2022-09-11T03:29:10.658Z,98191.09
2022-09-11T03:31:13.945Z,98190.09
2022-09-11T03:33:17.216Z,98197.19
2022-09-11T03:35:21.834Z,98189.16
2022-09-11T03:37:26.379Z,98191.91
2022-09-11T03:39:31.760Z,98191.91
2022-09-11T03:41:36.087Z,98195.53
2022-09-11T03:43:40.814Z,98195.53
2022-09-11T03:45:44.664Z,98189.56
2022-09-11T03:47:48.282Z,98192.75
2022-09-11T03:49:52.350Z,98191.91
2022-09-11T03:51:56.995Z,98191.09
2022-09-11T03:54:00.753Z,98191.78
2022-09-11T03:56:06.398Z,98190.09
2022-09-11T03:58:15.644Z,98193.75
2022-09-11T04:00:20.094Z,98202.63
2022-09-11T04:02:29.718Z,98206.22
2022-09-11T04:04:32.944Z,98199.97
2022-09-11T04:06:36.007Z,98209.41
2022-09-11T04:08:42.132Z,98210.09
2022-09-11T04:10:46.449Z,98202.88
2022-09-11T04:12:49.693Z,98207.19
2022-09-11T04:14:57.798Z,98217.72
2022-09-11T04:17:02.094Z,98224.63
2022-09-11T04:19:05.505Z,98220.34
2022-09-11T04:21:11.279Z,98214.09
2022-09-11T04:23:15.257Z,98221.19
2022-09-11T04:25:21.422Z,98227.41
2022-09-11T04:27:25.326Z,98223.81
2022-09-11T04:29:28.619Z,98227.41
2022-09-11T04:31:32.708Z,98232.69
2022-09-11T04:33:36.201Z,98229.22
2022-09-11T04:35:40.340Z,98231.72
2022-09-11T04:37:43.522Z,98235.06
2022-09-11T04:39:47.240Z,98235.78
2022-09-11T04:41:52.959Z,98236.75
2022-09-11T04:44:01.114Z,98243.84
2022-09-11T04:46:08.483Z,98244.66
2022-09-11T04:48:11.543Z,98242.97
2022-09-11T04:50:14.645Z,98244.91
2022-09-11T04:52:19.483Z,98246.59
2022-09-11T04:54:23.532Z,98254.38
2022-09-11T04:56:29.465Z,98257.16
2022-09-11T04:58:34.439Z,98257.25
2022-09-11T05:00:37.648Z,98257.41
2022-09-11T05:02:41.332Z,98263.25
2022-09-11T05:04:45.003Z,98265.75
2022-09-11T05:06:48.576Z,98268.25
2022-09-11T05:08:52.950Z,98276.81
2022-09-11T05:10:57.538Z,98271.56
2022-09-11T05:13:00.507Z,98267.97
2022-09-11T05:15:05.450Z,98278.38
2022-09-11T05:17:08.483Z,98277.25
2022-09-11T05:19:16.039Z,98279.75
2022-09-11T05:21:22.405Z,98281.41
2022-09-11T05:23:25.431Z,98284.03
2022-09-11T05:25:31.756Z,98283.22
2022-09-11T05:27:35.352Z,98282.41
2022-09-11T05:29:39.141Z,98278.63
2022-09-11T05:31:49.639Z,98290.03
2022-09-11T05:33:55.838Z,98290.84
2022-09-11T05:36:05.075Z,98294.16
2022-09-11T05:38:10.814Z,98297.78
2022-09-11T05:40:14.110Z,98299.72
2022-09-11T05:42:17.567Z,98311.69
2022-09-11T05:44:24.883Z,98309.47
2022-09-11T05:46:27.979Z,98307.25
2022-09-11T05:48:38.524Z,98322.78
2022-09-11T05:50:41.944Z,98318.34
2022-09-11T05:52:45.006Z,98314.59
2022-09-11T05:54:49.928Z,98313.47
2022-09-11T05:56:52.849Z,98324.00
2022-09-11T05:58:59.871Z,98321.38
2022-09-11T06:01:11.241Z,98317.78
2022-09-11T06:03:16.228Z,98329.00
2022-09-11T06:05:21.076Z,98332.34
2022-09-11T06:07:24.531Z,98324.44
2022-09-11T06:09:27.559Z,98341.22
2022-09-11T06:11:30.908Z,98340.41
2022-09-11T06:13:35.704Z,98337.63
2022-09-11T06:15:46.936Z,98350.53
2022-09-11T06:17:50.965Z,98349.53
2022-09-11T06:19:55.078Z,98349.53
2022-09-11T06:22:00.184Z,98357.19
2022-09-11T06:24:08.194Z,98358.72
2022-09-11T06:26:13.781Z,98360.25
2022-09-11T06:28:18.542Z,98364.38
2022-09-11T06:30:21.986Z,98368.41
2022-09-11T06:32:25.041Z,98368.00
2022-09-11T06:34:28.398Z,98373.13
2022-09-11T06:36:34.383Z,98373.13
2022-09-11T06:38:44.340Z,98373.00
2022-09-11T06:40:50.412Z,98368.25
2022-09-11T06:42:54.228Z,98380.50
2022-09-11T06:45:00.914Z,98372.44
2022-09-11T06:47:05.888Z,98384.78
2022-09-11T06:49:11.801Z,98376.19
2022-09-11T06:51:35.923Z,98375.06
2022-09-11T06:53:40.862Z,98385.50
2022-09-11T06:55:48.950Z,98379.06
2022-09-11T06:57:53.950Z,98384.06
2022-09-11T07:00:01.440Z,98389.22
2022-09-11T07:02:09.935Z,98382.00
2022-09-11T07:04:13.872Z,98390.88
2022-09-11T07:06:20.006Z,98392.69
2022-09-11T07:08:25.074Z,98387.56
2022-09-11T07:10:28.776Z,98389.22
2022-09-11T07:12:38.683Z,98395.34
2022-09-11T07:14:42.349Z,98390.75
2022-09-11T07:16:55.260Z,98390.59
2022-09-11T07:18:59.189Z,98388.63
2022-09-11T07:21:06.297Z,98392.81
2022-09-11T07:23:10.998Z,98400.44
2022-09-11T07:25:15.194Z,98397.53
2022-09-11T07:27:19.547Z,98396.56
2022-09-11T07:29:26.159Z,98401.56
2022-09-11T07:31:31.029Z,98405.56
2022-09-11T07:33:34.114Z,98402.63
2022-09-11T07:35:40.363Z,98405.41
2022-09-11T07:37:46.718Z,98401.09
2022-09-11T07:39:53.408Z,98406.09
2022-09-11T07:41:59.405Z,98414.44
2022-09-11T07:44:06.580Z,98406.38
2022-09-11T07:46:11.631Z,98415.94
2022-09-11T07:48:15.666Z,98409.69
2022-09-11T07:50:18.831Z,98414.69
2022-09-11T07:52:21.969Z,98412.78
2022-09-11T07:54:29.093Z,98420.25
2022-09-11T07:56:36.593Z,98415.56
2022-09-11T07:58:43.100Z,98419.53
2022-09-11T08:00:47.284Z,98423.88
2022-09-11T08:02:56.750Z,98423.88
2022-09-11T08:05:07.083Z,98427.31
2022-09-11T08:07:10.913Z,98424.00
2022-09-11T08:09:15.999Z,98425.81
2022-09-11T08:11:26.532Z,98432.59
2022-09-11T08:13:29.916Z,98436.78
2022-09-11T08:15:33.120Z,98428.56
2022-09-11T08:17:37.527Z,98437.03
2022-09-11T08:19:41.944Z,98438.97
2022-09-11T08:21:45.107Z,98446.53
2022-09-11T08:23:48.983Z,98449.56
2022-09-11T08:25:54.389Z,98449.00
2022-09-11T08:27:57.803Z,98452.56
2022-09-11T08:30:01.449Z,98451.53
2022-09-11T08:32:05.016Z,98458.28
2022-09-11T08:34:10.663Z,98459.66
2022-09-11T08:36:16.802Z,98456.41
2022-09-11T08:38:22.509Z,98456.25
2022-09-11T08:40:25.863Z,98463.56
2022-09-11T08:42:31.066Z,98455.63
2022-09-11T08:44:41.064Z,98452.91
2022-09-11T08:47:00.931Z,98455.84
2022-09-11T08:49:08.051Z,98462.75
2022-09-11T08:51:16.172Z,98462.75
2022-09-11T08:53:20.742Z,98457.03
2022-09-11T08:55:32.104Z,98456.47
2022-09-11T08:57:43.475Z,98465.84
2022-09-11T09:00:08.350Z,98461.41
2022-09-11T09:02:39.085Z,98470.53
2022-09-11T09:04:53.857Z,98469.53
2022-09-11T09:07:05.084Z,98465.16
2022-09-11T09:09:19.080Z,98463.69
2022-09-11T09:11:30.332Z,98458.69
2022-09-11T09:13:48.075Z,98468.03
2022-09-11T09:16:01.945Z,98464.44
2022-09-11T09:18:10.469Z,98466.22
2022-09-11T09:20:21.102Z,98466.53
2022-09-11T09:22:28.502Z,98463.66
2022-09-11T09:24:37.182Z,98472.41
2022-09-11T09:26:41.398Z,98477.88
2022-09-11T09:28:47.666Z,98476.16
2022-09-11T09:30:54.147Z,98474.38
2022-09-11T09:33:03.284Z,98473.22
2022-09-11T09:35:15.351Z,98471.53
2022-09-11T09:37:21.687Z,98475.03
2022-09-11T09:39:26.315Z,98474.84
2022-09-11T09:42:02.398Z,98471.94
2022-09-11T09:44:10.871Z,98475.06
2022-09-11T09:46:20.046Z,98473.00
2022-09-11T09:48:25.042Z,98476.13
2022-09-11T09:50:31.038Z,98477.94
2022-09-11T09:52:36.241Z,98476.44
2022-09-11T09:54:40.675Z,98472.59
2022-09-11T09:56:44.561Z,98480.38
2022-09-11T09:58:56.722Z,98471.03
2022-09-11T10:00:59.942Z,98463.72
2022-09-11T10:03:19.098Z,98466.31
2022-09-11T10:05:27.016Z,98467.91
2022-09-11T10:07:32.452Z,98463.38
2022-09-11T10:09:35.962Z,98461.91
2022-09-11T10:11:40.844Z,98466.50
2022-09-11T10:13:45.735Z,98470.16
2022-09-11T10:15:50.274Z,98467.28
2022-09-11T10:17:53.754Z,98468.13
2022-09-11T10:19:58.004Z,98468.75
2022-09-11T10:22:22.210Z,98470.81
2022-09-11T10:24:26.184Z,98461.97
2022-09-11T10:26:34.023Z,98466.72
2022-09-11T10:28:38.641Z,98462.75
2022-09-11T10:30:42.750Z,98468.59
2022-09-11T10:32:45.760Z,98466.59
2022-09-11T10:34:48.994Z,98464.75
2022-09-11T10:36:55.673Z,98463.13
2022-09-11T10:39:00.339Z,98460.78
2022-09-11T10:41:08.918Z,98465.44
2022-09-11T10:43:24.354Z,98461.47
2022-09-11T10:45:28.798Z,98471.09
2022-09-11T10:47:33.544Z,98472.41
2022-09-11T10:49:36.870Z,98465.53
2022-09-11T10:51:46.774Z,98461.97
2022-09-11T10:54:05.150Z,98457.97
2022-09-11T10:56:09.168Z,98453.56
2022-09-11T10:58:15.098Z,98456.03
2022-09-11T11:00:21.229Z,98452.31
2022-09-11T11:02:31.675Z,98456.41
2022-09-11T11:04:35.145Z,98455.09
2022-09-11T11:06:46.998Z,98455.91
2022-09-11T11:09:01.677Z,98449.03
2022-09-11T11:11:14.853Z,98449.38
2022-09-11T11:13:31.220Z,98446.50
2022-09-11T11:15:43.326Z,98440.84
2022-09-11T11:17:54.144Z,98447.81
2022-09-11T11:20:06.989Z,98430.13
2022-09-11T11:22:18.010Z,98438.59
2022-09-11T11:24:33.291Z,98436.53
2022-09-11T11:26:47.068Z,98431.63
2022-09-11T11:29:01.888Z,98429.47
2022-09-11T11:31:15.808Z,98432.59
2022-09-11T11:33:46.971Z,98430.22
2022-09-11T11:35:59.062Z,98425.31
2022-09-11T11:38:04.859Z,98431.63
2022-09-11T11:40:15.225Z,98431.59
2022-09-11T11:42:23.691Z,98434.66
2022-09-11T11:44:34.384Z,98437.25
2022-09-11T11:46:41.166Z,98438.81
2022-09-11T11:48:50.467Z,98439.94
2022-09-11T11:50:55.248Z,98429.81
2022-09-11T11:53:04.042Z,98432.16
2022-09-11T11:55:16.896Z,98430.06
2022-09-11T11:57:22.243Z,98426.94
2022-09-11T11:59:32.732Z,98433.56
2022-09-11T12:01:39.917Z,98432.72
2022-09-11T12:03:48.220Z,98436.03
2022-09-11T12:05:51.207Z,98429.66
2022-09-11T12:07:54.689Z,98436.94
2022-09-11T12:09:59.813Z,98439.81
2022-09-11T12:12:06.697Z,98441.41
2022-09-11T12:14:26.588Z,98434.19
2022-09-11T12:16:32.055Z,98438.78
2022-09-11T12:18:35.206Z,98426.81
2022-09-11T12:20:42.657Z,98434.91
2022-09-11T12:22:46.870Z,98427.13
2022-09-11T12:24:58.641Z,98428.38
2022-09-11T12:27:34.428Z,98425.78
2022-09-11T12:29:54.832Z,98420.00
2022-09-11T12:32:19.674Z,98417.03
2022-09-11T12:34:25.757Z,98418.88
2022-09-11T12:36:38.227Z,98419.41
2022-09-11T12:38:44.876Z,98416.47
2022-09-11T12:40:53.199Z,98405.19
2022-09-11T12:42:58.640Z,98412.63
2022-09-11T12:45:04.659Z,98405.69
2022-09-11T12:47:13.337Z,98413.38
2022-09-11T12:49:22.484Z,98409.56
2022-09-11T12:51:27.340Z,98406.59
2022-09-11T12:53:33.571Z,98399.78
2022-09-11T12:55:40.559Z,98403.66
2022-09-11T12:57:43.758Z,98417.81
2022-09-11T12:59:52.469Z,98415.84
2022-09-11T13:01:56.388Z,98412.56
2022-09-11T13:04:02.144Z,98414.91
2022-09-11T13:06:07.928Z,98409.13
2022-09-11T13:08:16.533Z,98417.28
2022-09-11T13:10:33.446Z,98409.28
2022-09-11T13:12:55.836Z,98408.66
2022-09-11T13:14:59.477Z,98413.47
2022-09-11T13:17:03.466Z,98410.97
2022-09-11T13:19:13.895Z,98411.31
2022-09-11T13:21:22.112Z,98414.78
2022-09-11T13:23:28.073Z,98410.97
2022-09-11T13:25:33.181Z,98408.13
2022-09-11T13:27:37.527Z,98407.81
2022-09-11T13:29:42.860Z,98409.47
2022-09-11T13:31:45.944Z,98407.34
2022-09-11T13:33:50.582Z,98410.31
2022-09-11T13:35:54.292Z,98400.31
2022-09-11T13:37:59.462Z,98404.31
2022-09-11T13:40:04.301Z,98406.28
2022-09-11T13:42:16.239Z,98397.16
2022-09-11T13:44:41.591Z,98388.03
2022-09-11T13:46:51.759Z,98399.13
2022-09-11T13:49:00.250Z,98393.81
2022-09-11T13:51:05.040Z,98398.63
2022-09-11T13:53:09.323Z,98394.09
2022-09-11T13:55:19.135Z,98388.88
2022-09-11T13:57:25.050Z,98388.81
2022-09-11T13:59:36.351Z,98385.44
2022-09-11T14:01:53.863Z,98377.88
2022-09-11T14:03:57.325Z,98374.00
2022-09-11T14:06:01.789Z,98380.66
2022-09-11T14:08:07.559Z,98374.28
2022-09-11T14:10:20.211Z,98375.59
2022-09-11T14:12:24.893Z,98377.97
2022-09-11T14:14:29.105Z,98370.69
2022-09-11T14:16:33.420Z,98369.03
2022-09-11T14:18:41.319Z,98368.38
2022-09-11T14:20:46.351Z,98365.72
2022-09-11T14:22:54.253Z,98363.69
2022-09-11T14:25:02.892Z,98360.03
2022-09-11T14:27:36.495Z,98366.47
2022-09-11T14:29:39.588Z,98365.84
2022-09-11T14:31:44.216Z,98361.03
2022-09-11T14:33:47.380Z,98357.91
2022-09-11T14:35:50.888Z,98353.06
2022-09-11T14:37:53.902Z,98352.69
2022-09-11T14:39:59.080Z,98346.56
2022-09-11T14:42:02.492Z,98352.69
2022-09-11T14:44:06.864Z,98347.84
2022-09-11T14:46:09.958Z,98345.66
2022-09-11T14:48:14.360Z,98346.31
2022-09-11T14:50:17.382Z,98345.31
2022-09-11T14:52:22.223Z,98353.16
2022-09-11T14:54:26.228Z,98343.41
2022-09-11T14:56:29.228Z,98344.41
2022-09-11T14:58:32.741Z,98340.28
2022-09-11T15:00:37.104Z,98341.09
2022-09-11T15:02:40.269Z,98333.94
2022-09-11T15:04:43.380Z,98333.78
2022-09-11T15:06:46.458Z,98335.91
2022-09-11T15:08:49.940Z,98331.88
2022-09-11T15:10:53.785Z,98330.16
2022-09-11T15:12:58.755Z,98329.00
2022-09-11T15:15:04.640Z,98322.16
2022-09-11T15:17:10.741Z,98324.00
2022-09-11T15:19:15.289Z,98319.34
2022-09-11T15:21:18.272Z,98321.00
2022-09-11T15:23:21.410Z,98322.47
2022-09-11T15:25:24.839Z,98330.28
2022-09-11T15:27:28.208Z,98323.59
2022-09-11T15:29:31.794Z,98321.91
2022-09-11T15:31:34.927Z,98326.06
2022-09-11T15:33:39.386Z,98319.19
2022-09-11T15:35:42.380Z,98323.06
2022-09-11T15:37:46.736Z,98318.91
2022-09-11T15:39:50.654Z,98322.28
2022-09-11T15:41:55.395Z,98318.78
2022-09-11T15:43:58.588Z,98328.41
2022-09-11T15:46:01.734Z,98327.78
2022-09-11T15:48:04.883Z,98319.78
2022-09-11T15:50:09.972Z,98316.84
2022-09-11T15:52:12.993Z,98314.34
2022-09-11T15:54:16.629Z,98313.72
2022-09-11T15:56:26.003Z,98311.06
2022-09-11T15:58:29.289Z,98302.56
2022-09-11T16:00:32.351Z,98307.63
2022-09-11T16:02:35.676Z,98313.13
2022-09-11T16:04:38.858Z,98309.81
2022-09-11T16:06:45.679Z,98310.81
2022-09-11T16:08:48.980Z,98313.66
2022-09-11T16:10:52.340Z,98305.84
2022-09-11T16:12:58.843Z,98309.84
2022-09-11T16:15:02.144Z,98314.06
2022-09-11T16:17:07.166Z,98315.41
2022-09-11T16:19:10.327Z,98307.94
2022-09-11T16:21:14.569Z,98305.78
2022-09-11T16:23:19.336Z,98302.66
2022-09-11T16:25:22.812Z,98295.19
2022-09-11T16:27:25.905Z,98306.38
2022-09-11T16:29:51.160Z,98302.56
2022-09-11T16:31:52.803Z,98299.59
2022-09-11T16:33:56.950Z,98299.94
2022-09-11T16:36:01.015Z,98304.13
2022-09-11T16:38:04.686Z,98306.66
2022-09-11T16:40:12.028Z,98300.22
2022-09-11T16:42:15.197Z,98302.72
2022-09-11T16:44:18.674Z,98307.09
2022-09-11T16:46:23.151Z,98300.44
2022-09-11T16:48:26.524Z,98305.47
2022-09-11T16:50:29.564Z,98304.31
2022-09-11T16:52:34.498Z,98300.31
2022-09-11T16:54:38.310Z,98300.84
2022-09-11T16:56:46.056Z,98302.00
2022-09-11T16:58:49.415Z,98303.31
2022-09-11T17:00:53.517Z,98294.06
2022-09-11T17:02:56.496Z,98302.69
2022-09-11T17:04:59.551Z,98308.53
2022-09-11T17:07:02.696Z,98310.50
2022-09-11T17:09:05.851Z,98310.00
2022-09-11T17:11:12.185Z,98308.69
2022-09-11T17:13:16.872Z,98307.22
2022-09-11T17:15:20.333Z,98303.22
2022-09-11T17:17:24.067Z,98303.91
2022-09-11T17:19:27.543Z,98305.41
2022-09-11T17:21:35.674Z,98305.75
2022-09-11T17:23:39.364Z,98303.59
2022-09-11T17:25:42.597Z,98301.63
2022-09-11T17:27:46.074Z,98300.44
2022-09-11T17:29:51.023Z,98302.75
2022-09-11T17:32:16.655Z,98294.78
2022-09-11T17:34:18.261Z,98298.09
2022-09-11T17:36:22.958Z,98296.75
2022-09-11T17:38:26.122Z,98306.19
2022-09-11T17:40:29.309Z,98305.72
2022-09-11T17:42:32.500Z,98301.06
2022-09-11T17:44:35.686Z,98299.72
2022-09-11T17:46:40.208Z,98300.41
2022-09-11T17:48:43.911Z,98300.22
2022-09-11T17:50:47.628Z,98299.06
2022-09-11T17:52:54.154Z,98300.69
2022-09-11T17:54:57.686Z,98301.34
2022-09-11T17:57:00.977Z,98307.13
2022-09-11T17:59:15.054Z,98299.94
2022-09-11T18:01:19.765Z,98305.22
2022-09-11T18:03:24.245Z,98305.06
2022-09-11T18:05:28.739Z,98301.22
2022-09-11T18:07:31.996Z,98300.19
2022-09-11T18:09:35.199Z,98301.66
2022-09-11T18:11:38.506Z,98305.94
2022-09-11T18:13:43.044Z,98296.81
2022-09-11T18:15:47.013Z,98300.59
2022-09-11T18:17:50.402Z,98307.03
2022-09-11T18:19:54.823Z,98304.69
2022-09-11T18:21:59.740Z,98313.97
2022-09-11T18:24:03.793Z,98309.00
2022-09-11T18:26:07.467Z,98316.72
2022-09-11T18:28:10.824Z,98314.69
2022-09-11T18:30:14.003Z,98315.63
2022-09-11T18:32:17.160Z,98315.38
2022-09-11T18:34:22.392Z,98311.41
2022-09-11T18:36:28.381Z,98309.38
2022-09-11T18:38:33.197Z,98311.28
2022-09-11T18:40:36.354Z,98313.53
2022-09-11T18:42:40.824Z,98320.25
2022-09-11T18:44:44.279Z,98322.69
2022-09-11T18:46:47.569Z,98319.28
2022-09-11T18:48:51.188Z,98323.50
2022-09-11T18:50:54.908Z,98319.81
2022-09-11T18:53:00.162Z,98323.72
2022-09-11T18:55:03.824Z,98316.38
2022-09-11T18:57:07.241Z,98314.88
2022-09-11T18:59:10.498Z,98323.94
2022-09-11T19:01:16.741Z,98321.75
2022-09-11T19:03:21.468Z,98326.50
2022-09-11T19:05:25.093Z,98330.94
2022-09-11T19:07:28.380Z,98322.63
2022-09-11T19:09:32.797Z,98311.84
2022-09-11T19:11:36.334Z,98322.19
2022-09-11T19:13:39.828Z,98320.13
2022-09-11T19:15:42.999Z,98329.47
2022-09-11T19:17:48.066Z,98317.97
2022-09-11T19:19:52.624Z,98321.34
2022-09-11T19:21:55.836Z,98319.47
2022-09-11T19:24:00.782Z,98321.53
2022-09-11T19:26:06.949Z,98319.47
2022-09-11T19:28:11.857Z,98326.88
2022-09-11T19:30:16.198Z,98317.41
2022-09-11T19:32:19.403Z,98338.69
2022-09-11T19:34:24.476Z,98328.28
2022-09-11T19:36:29.202Z,98339.09
2022-09-11T19:38:33.323Z,98335.78
2022-09-11T19:40:36.414Z,98335.09
2022-09-11T19:42:40.834Z,98340.66
2022-09-11T19:44:45.788Z,98345.38
2022-09-11T19:46:50.046Z,98343.03
2022-09-11T19:48:54.401Z,98345.13
2022-09-11T19:50:57.998Z,98340.13
2022-09-11T19:53:01.164Z,98336.81
2022-09-11T19:55:04.283Z,98342.38
2022-09-11T19:57:08.298Z,98346.13
2022-09-11T19:59:14.247Z,98340.03
2022-09-11T20:01:18.654Z,98342.81
2022-09-11T20:03:21.715Z,98338.78
2022-09-11T20:05:24.970Z,98339.06
2022-09-11T20:07:28.056Z,98333.13
2022-09-11T20:09:32.492Z,98330.91
2022-09-11T20:11:36.184Z,98328.97
2022-09-11T20:13:39.449Z,98327.72
2022-09-11T20:15:43.942Z,98324.69
2022-09-11T20:17:47.080Z,98319.69
2022-09-11T20:19:50.092Z,98318.03
2022-09-11T20:21:53.056Z,98314.31
2022-09-11T20:23:56.936Z,98318.31
2022-09-11T20:26:10.096Z,98322.50
2022-09-11T20:28:16.008Z,98317.91
2022-09-11T20:30:19.256Z,98325.94
2022-09-11T20:32:23.807Z,98323.31
2022-09-11T20:34:28.161Z,98327.03
2022-09-11T20:36:32.242Z,98331.63
2022-09-11T20:38:35.384Z,98323.03
2022-09-11T20:40:38.497Z,98323.31
2022-09-11T20:42:41.923Z,98328.88
2022-09-11T20:44:45.376Z,98322.06
2022-09-11T20:46:48.442Z,98328.69
2022-09-11T20:48:53.870Z,98313.16
2022-09-11T20:50:57.202Z,98324.84
2022-09-11T20:53:00.587Z,98317.22
2022-09-11T20:55:03.832Z,98328.84
2022-09-11T20:57:07.124Z,98322.31
2022-09-11T20:59:10.124Z,98327.84
2022-09-11T21:01:14.854Z,98328.84
2022-09-11T21:03:18.002Z,98319.13
2022-09-11T21:05:22.360Z,98320.09
2022-09-11T21:07:25.550Z,98319.25
2022-09-11T21:09:28.650Z,98315.13
2022-09-11T21:11:31.910Z,98312.63
2022-09-11T21:13:35.672Z,98314.00
2022-09-11T21:15:42.733Z,98319.25
2022-09-11T21:17:45.731Z,98319.66
2022-09-11T21:19:48.803Z,98316.44
2022-09-11T21:21:53.172Z,98320.19
2022-09-11T21:23:56.893Z,98317.84
2022-09-11T21:25:59.918Z,98316.97
2022-09-11T21:28:03.205Z,98314.34
2022-09-11T21:30:07.095Z,98316.44
2022-09-11T21:32:10.089Z,98314.88
2022-09-11T21:34:13.123Z,98315.06
2022-09-11T21:36:16.176Z,98315.31
2022-09-11T21:38:21.610Z,98320.84
2022-09-11T21:40:24.819Z,98319.88
2022-09-11T21:42:27.872Z,98317.50
2022-09-11T21:44:30.893Z,98328.16
2022-09-11T21:46:34.786Z,98320.66
2022-09-11T21:48:39.294Z,98320.75
2022-09-11T21:50:42.484Z,98327.16
2022-09-11T21:52:45.559Z,98325.47
2022-09-11T21:54:51.123Z,98323.78
2022-09-11T21:56:54.062Z,98325.03
2022-09-11T21:58:57.185Z,98316.28
2022-09-11T22:01:05.765Z,98327.81
2022-09-11T22:03:09.790Z,98324.44
2022-09-11T22:05:12.914Z,98313.38
2022-09-11T22:07:17.695Z,98319.72
2022-09-11T22:09:20.949Z,98319.28
2022-09-11T22:11:26.356Z,98316.22
2022-09-11T22:13:29.732Z,98321.88
2022-09-11T22:15:32.775Z,98318.44
2022-09-11T22:17:35.793Z,98315.94
2022-09-11T22:19:38.885Z,98319.78
2022-09-11T22:21:41.857Z,98311.19
2022-09-11T22:23:45.271Z,98313.69
2022-09-11T22:25:48.916Z,98316.34
2022-09-11T22:27:53.262Z,98315.59
2022-09-11T22:29:56.218Z,98318.38
2022-09-11T22:31:59.181Z,98313.50
2022-09-11T22:34:02.268Z,98319.88
2022-09-11T22:36:10.228Z,98309.63
2022-09-11T22:38:13.314Z,98303.63
2022-09-11T22:40:16.434Z,98303.88
2022-09-11T22:42:19.509Z,98306.53
2022-09-11T22:44:23.828Z,98297.00
2022-09-11T22:46:27.616Z,98297.00
2022-09-11T22:48:30.567Z,98296.25
2022-09-11T22:50:34.537Z,98302.50
2022-09-11T22:52:38.494Z,98304.44
2022-09-11T22:54:41.499Z,98303.03
2022-09-11T22:56:44.568Z,98299.69
2022-09-11T22:58:47.638Z,98300.66
2022-09-11T23:00:52.841Z,98296.34
2022-09-11T23:02:55.889Z,98293.28
2022-09-11T23:05:24.927Z,98295.47
2022-09-11T23:07:27.959Z,98303.88
2022-09-11T23:09:30.892Z,98297.06
2022-09-11T23:11:33.918Z,98296.25
2022-09-11T23:13:37.669Z,98300.78
2022-09-11T23:15:40.845Z,98294.00
2022-09-11T23:17:45.186Z,98292.44
2022-09-11T23:19:48.762Z,98292.59
2022-09-11T23:21:52.109Z,98290.91
2022-09-11T23:23:57.091Z,98288.44
2022-09-11T23:26:00.101Z,98300.03
2022-09-11T23:28:03.279Z,98292.50
2022-09-11T23:30:07.075Z,98289.41
2022-09-11T23:32:10.083Z,98289.81
2022-09-11T23:34:17.278Z,98281.19
2022-09-11T23:36:20.184Z,98287.44
2022-09-11T23:38:23.131Z,98282.19
2022-09-11T23:40:28.310Z,98280.63
2022-09-11T23:42:34.384Z,98276.19
2022-09-11T23:44:37.375Z,98283.00
2022-09-11T23:46:40.378Z,98275.38
2022-09-11T23:48:43.411Z,98276.31
2022-09-11T23:50:47.849Z,98272.88
2022-09-11T23:52:50.785Z,98275.63
2022-09-11T23:54:54.109Z,98275.75
2022-09-11T23:56:57.131Z,98274.19
2022-09-11T23:59:00.131Z,98278.75
